Time;durP1;ratioP1;P1;durP2;ratioP2;P2;SDS_P1;SDS_P2;PMS_P1;PMS_P2;Temp;Humidity;BMP_temperature;BMP_pressure;BME280_temperature;BME280_humidity;BME280_pressure;Samples;Min_cycle;Max_cycle;Signal;HPM_P1;HPM_P2
2023/01/13 00:01:44;;;;;;;4.05;3.00;;;23.50;42.70;;;;;;6060005;28;87651;-65
2023/01/13 00:04:45;;;;;;;4.93;2.97;;;23.50;43.10;;;;;;6082593;28;83328;-66
2023/01/13 00:07:47;;;;;;;4.85;2.83;;;23.50;43.10;;;;;;6057533;28;80849;-66
2023/01/13 00:10:48;;;;;;;4.82;2.60;;;23.50;43.10;;;;;;6068491;28;81630;-68
2023/01/13 00:13:48;;;;;;;4.55;2.95;;;23.50;43.10;;;;;;6073265;28;82336;-67
2023/01/13 00:16:49;;;;;;;3.42;2.42;;;23.50;43.00;;;;;;6072772;28;80220;-67
2023/01/13 00:19:50;;;;;;;3.50;2.45;;;23.50;43.10;;;;;;6078284;28;80631;-65
2023/01/13 00:22:50;;;;;;;4.20;2.70;;;23.50;43.10;;;;;;6079996;28;83261;-64
2023/01/13 00:25:51;;;;;;;3.08;2.40;;;23.50;43.10;;;;;;6079873;28;81838;-64
2023/01/13 00:28:51;;;;;;;3.67;2.67;;;23.50;43.10;;;;;;6079386;28;80505;-65
2023/01/13 00:31:54;;;;;;;3.50;2.20;;;23.50;43.00;;;;;;6070786;28;86353;-63
2023/01/13 00:34:54;;;;;;;3.72;2.35;;;23.50;43.10;;;;;;6055822;28;81958;-65
2023/01/13 00:37:55;;;;;;;5.10;2.45;;;23.50;43.00;;;;;;6062727;28;80449;-64
2023/01/13 00:40:55;;;;;;;3.75;2.50;;;23.40;43.00;;;;;;6074640;28;81373;-64
2023/01/13 00:43:56;;;;;;;3.75;2.35;;;23.50;43.10;;;;;;6054240;28;81061;-63
2023/01/13 00:46:56;;;;;;;2.97;2.50;;;23.40;42.90;;;;;;6054199;28;80655;-62
2023/01/13 00:49:57;;;;;;;4.65;2.20;;;23.40;43.00;;;;;;6055495;28;82208;-63
2023/01/13 00:52:59;;;;;;;4.13;2.33;;;23.40;43.00;;;;;;6056311;28;80903;-63
2023/01/13 00:55:59;;;;;;;4.13;2.25;;;23.40;42.90;;;;;;6085200;28;82311;-64
2023/01/13 00:59:01;;;;;;;4.28;2.25;;;23.40;43.00;;;;;;6083583;28;80924;-75
2023/01/13 01:02:01;;;;;;;3.40;2.30;;;23.40;42.90;;;;;;6080073;28;80986;-68
2023/01/13 01:05:02;;;;;;;3.50;2.45;;;23.40;42.80;;;;;;6089127;28;82350;-71
2023/01/13 01:08:02;;;;;;;3.88;2.25;;;23.40;42.70;;;;;;6057321;28;81110;-71
2023/01/13 01:11:03;;;;;;;3.33;2.35;;;23.40;42.80;;;;;;6064147;28;80422;-74
2023/01/13 01:14:03;;;;;;;2.88;2.28;;;23.40;43.00;;;;;;6068170;28;80916;-67
2023/01/13 01:17:04;;;;;;;2.30;1.75;;;23.40;42.90;;;;;;6070026;28;80447;-66
2023/01/13 01:20:04;;;;;;;2.75;2.15;;;23.40;42.70;;;;;;6065310;28;80706;-67
2023/01/13 01:23:05;;;;;;;3.58;2.60;;;23.40;42.70;;;;;;6057105;28;81436;-65
2023/01/13 01:26:05;;;;;;;4.10;2.13;;;23.40;42.80;;;;;;6068457;28;80437;-67
2023/01/13 01:29:06;;;;;;;4.25;2.20;;;23.40;42.70;;;;;;6056709;28;80912;-67
2023/01/13 01:32:06;;;;;;;2.88;1.83;;;23.40;42.70;;;;;;6080642;28;80952;-71
2023/01/13 01:35:07;;;;;;;2.47;1.90;;;23.40;42.90;;;;;;6057268;28;81595;-70
2023/01/13 01:38:08;;;;;;;3.03;1.80;;;23.40;43.00;;;;;;6057268;28;81532;-60
2023/01/13 01:41:08;;;;;;;4.55;2.20;;;23.40;43.00;;;;;;6056556;28;80894;-60
2023/01/13 01:44:09;;;;;;;2.72;1.75;;;23.40;43.00;;;;;;6060466;28;81188;-61
2023/01/13 01:47:09;;;;;;;2.00;1.80;;;23.40;42.90;;;;;;6059820;28;80779;-60
2023/01/13 01:50:10;;;;;;;3.00;2.05;;;23.40;42.90;;;;;;6073653;28;80510;-59
2023/01/13 01:53:10;;;;;;;3.75;2.03;;;23.40;43.00;;;;;;6083829;28;80259;-61
2023/01/13 01:56:11;;;;;;;3.53;2.10;;;23.40;43.10;;;;;;6095845;28;80997;-70
2023/01/13 01:59:11;;;;;;;3.33;2.00;;;23.40;43.10;;;;;;6083431;28;84334;-70
2023/01/13 02:02:12;;;;;;;2.83;1.98;;;23.40;43.10;;;;;;6083807;28;82698;-69
2023/01/13 02:05:12;;;;;;;2.78;2.22;;;23.30;43.10;;;;;;6083711;28;80313;-69
2023/01/13 02:08:13;;;;;;;2.45;1.80;;;23.40;43.20;;;;;;6087629;28;80728;-67
2023/01/13 02:12:28;;;;;;;2.42;1.85;;;23.40;43.10;;;;;;6082623;28;81732;-69
2023/01/13 02:14:34;;;;;;;1.95;1.73;;;23.40;43.10;;;;;;6079590;28;82368;-72
2023/01/13 02:17:34;;;;;;;4.78;1.85;;;23.40;43.00;;;;;;6077936;28;81019;-69
2023/01/13 02:20:35;;;;;;;2.05;1.65;;;23.40;43.00;;;;;;6077781;28;80634;-68
2023/01/13 02:26:54;;;;;;;2.47;1.80;;;23.40;43.10;;;;;;6062565;28;86060;-65
2023/01/13 02:33:14;;;;;;;3.33;2.03;;;23.40;43.20;;;;;;6069509;28;87654;-67
2023/01/13 02:36:15;;;;;;;2.42;1.75;;;23.40;43.30;;;;;;6070130;28;80112;-66
2023/01/13 02:39:16;;;;;;;2.40;1.50;;;23.40;43.40;;;;;;6071806;28;80376;-65
2023/01/13 02:45:35;;;;;;;2.42;1.80;;;23.40;43.70;;;;;;6067569;28;80407;-65
2023/01/13 02:48:36;;;;;;;2.88;1.70;;;23.40;43.60;;;;;;6065379;28;80620;-64
2023/01/13 02:51:36;;;;;;;2.40;1.60;;;23.40;43.40;;;;;;6067732;28;80015;-73
2023/01/13 02:54:37;;;;;;;2.95;1.58;;;23.40;43.40;;;;;;6085942;28;80933;-74
2023/01/13 02:57:37;;;;;;;1.42;1.23;;;23.40;43.50;;;;;;6069249;28;81683;-70
2023/01/13 03:00:38;;;;;;;2.17;1.55;;;23.40;43.50;;;;;;6067906;28;80709;-69
2023/01/13 03:03:38;;;;;;;2.92;1.60;;;23.40;43.80;;;;;;6081343;28;82173;-69
2023/01/13 03:06:39;;;;;;;2.55;1.75;;;23.40;43.70;;;;;;6074425;28;80518;-70
2023/01/13 03:09:39;;;;;;;1.92;1.48;;;23.40;43.70;;;;;;6065212;28;80514;-63
2023/01/13 03:12:40;;;;;;;2.15;1.55;;;23.30;43.50;;;;;;6070873;28;80730;-63
2023/01/13 03:15:41;;;;;;;1.70;1.50;;;23.30;43.40;;;;;;6063503;28;80860;-62
2023/01/13 03:18:41;;;;;;;2.05;1.40;;;23.30;43.40;;;;;;6066821;28;81133;-62
2023/01/13 03:21:42;;;;;;;3.72;2.00;;;23.30;43.40;;;;;;6063102;28;80556;-62
2023/01/13 03:24:42;;;;;;;1.95;1.48;;;23.30;43.30;;;;;;6063884;28;81714;-62
2023/01/13 03:27:43;;;;;;;2.50;1.40;;;23.30;43.40;;;;;;6078594;28;80920;-61
2023/01/13 03:30:43;;;;;;;2.05;1.50;;;23.30;43.30;;;;;;6072474;28;80533;-62
2023/01/13 03:33:44;;;;;;;2.55;1.50;;;23.30;43.20;;;;;;6068236;28;80612;-62
2023/01/13 03:36:45;;;;;;;3.20;1.58;;;23.30;43.10;;;;;;6074192;28;80394;-62
2023/01/13 03:39:45;;;;;;;2.58;1.90;;;23.30;43.00;;;;;;6058199;28;81480;-61
2023/01/13 03:44:20;;;;;;;3.03;1.60;;;23.30;43.00;;;;;;6070543;28;80602;-61
2023/01/13 03:46:06;;;;;;;2.88;1.58;;;23.30;42.90;;;;;;6057690;28;80370;-59
2023/01/13 03:49:07;;;;;;;2.63;1.48;;;23.30;43.00;;;;;;6057809;28;80849;-60
2023/01/13 03:52:07;;;;;;;3.17;1.58;;;23.30;42.80;;;;;;6077150;28;81092;-60
2023/01/13 03:55:08;;;;;;;3.85;1.80;;;23.30;42.90;;;;;;6080645;28;83155;-60
2023/01/13 03:58:13;;;;;;;2.08;1.58;;;23.20;43.00;;;;;;6064554;28;80511;-59
2023/01/13 04:01:13;;;;;;;1.55;1.30;;;23.20;42.80;;;;;;6058166;28;81906;-60
2023/01/13 04:04:14;;;;;;;1.67;1.55;;;23.20;42.90;;;;;;6057756;28;80657;-61
2023/01/13 04:07:14;;;;;;;2.35;1.45;;;23.20;42.90;;;;;;6083097;28;82367;-63
2023/01/13 04:10:15;;;;;;;2.10;1.50;;;23.30;42.80;;;;;;6060963;28;80792;-62
2023/01/13 04:13:15;;;;;;;1.98;1.60;;;23.30;42.80;;;;;;6076001;28;80715;-61
2023/01/13 04:16:16;;;;;;;1.75;1.48;;;23.30;42.90;;;;;;6077731;28;80369;-62
2023/01/13 04:19:16;;;;;;;2.72;1.70;;;23.30;42.80;;;;;;6065550;28;81406;-61
2023/01/13 04:22:17;;;;;;;1.73;1.30;;;23.20;43.20;;;;;;6076177;28;80568;-66
2023/01/13 04:25:17;;;;;;;2.85;1.92;;;23.30;42.80;;;;;;6066416;28;81233;-65
2023/01/13 04:28:18;;;;;;;2.20;1.73;;;23.30;42.80;;;;;;6077040;28;80341;-64
2023/01/13 04:31:18;;;;;;;3.53;1.77;;;23.20;42.70;;;;;;6077773;28;80957;-65
2023/01/13 04:34:19;;;;;;;1.88;1.33;;;23.30;42.90;;;;;;6074998;28;81385;-65
2023/01/13 04:37:19;;;;;;;1.40;1.30;;;23.20;42.80;;;;;;6077541;28;81092;-66
2023/01/13 04:40:20;;;;;;;2.00;1.48;;;23.30;42.80;;;;;;6078404;28;80788;-65
2023/01/13 04:43:21;;;;;;;1.73;1.40;;;23.20;42.80;;;;;;6065678;28;86699;-70
2023/01/13 04:46:21;;;;;;;3.45;1.50;;;23.30;43.00;;;;;;6065194;28;80397;-68
2023/01/13 04:49:22;;;;;;;2.75;1.83;;;23.30;42.90;;;;;;6063263;28;84329;-67
2023/01/13 04:52:23;;;;;;;4.93;1.83;;;23.20;43.10;;;;;;6061245;28;82263;-66
2023/01/13 04:55:24;;;;;;;2.60;1.65;;;23.30;43.00;;;;;;6061059;28;80927;-66
2023/01/13 04:58:24;;;;;;;1.80;1.60;;;23.20;43.30;;;;;;6059375;28;81066;-69
2023/01/13 05:01:25;;;;;;;3.83;1.60;;;23.20;43.20;;;;;;6059175;28;84669;-64
2023/01/13 05:04:26;;;;;;;3.08;1.55;;;23.30;43.10;;;;;;6050767;28;81104;-64
2023/01/13 05:07:26;;;;;;;1.77;1.52;;;23.30;43.30;;;;;;6051227;28;81055;-69
2023/01/13 05:10:27;;;;;;;3.08;1.58;;;23.30;43.20;;;;;;6054582;28;80412;-66
2023/01/13 05:16:59;;;;;;;3.53;1.63;;;23.20;43.00;;;;;;6059556;28;81111;-62
2023/01/13 05:19:59;;;;;;;1.90;1.60;;;23.30;43.10;;;;;;6052827;28;80497;-63
2023/01/13 05:26:19;;;;;;;2.20;1.67;;;23.30;43.00;;;;;;6055284;28;80457;-61
2023/01/13 05:29:20;;;;;;;3.85;1.77;;;23.30;42.90;;;;;;6050112;28;80420;-61
2023/01/13 05:32:20;;;;;;;2.38;1.67;;;23.30;43.00;;;;;;6058429;28;83360;-64
2023/01/13 05:35:21;;;;;;;2.10;1.60;;;23.30;43.50;;;;;;6075914;28;80819;-60
2023/01/13 05:38:21;;;;;;;2.65;1.70;;;23.30;43.40;;;;;;6070675;28;80974;-59
2023/01/13 05:44:41;;;;;;;1.92;1.40;;;23.40;44.30;;;;;;6068645;28;81149;-60
2023/01/13 05:47:42;;;;;;;4.95;1.65;;;23.30;44.10;;;;;;6071202;28;80561;-59
2023/01/13 05:50:43;;;;;;;2.70;1.45;;;23.30;44.10;;;;;;6065670;28;81045;-60
2023/01/13 05:53:44;;;;;;;3.55;1.95;;;23.30;44.10;;;;;;6070087;28;81043;-64
2023/01/13 05:56:44;;;;;;;2.97;1.98;;;23.40;44.40;;;;;;6069532;28;81029;-60
2023/01/13 05:59:45;;;;;;;7.72;1.55;;;23.40;44.50;;;;;;6066925;28;83887;-57
2023/01/13 06:02:45;;;;;;;3.42;1.80;;;23.40;45.10;;;;;;6072975;28;85706;-58
2023/01/13 06:05:46;;;;;;;4.10;1.88;;;23.50;44.90;;;;;;6070971;28;80501;-59
2023/01/13 06:08:47;;;;;;;9.65;1.95;;;23.50;45.00;;;;;;6101127;28;85783;-59
2023/01/13 06:11:47;;;;;;;5.57;1.95;;;23.40;45.00;;;;;;6099810;28;81973;-75
2023/01/13 06:14:48;;;;;;;2.00;1.63;;;23.50;45.60;;;;;;6105227;28;80840;-72
2023/01/13 06:17:48;;;;;;;4.07;1.98;;;23.50;45.40;;;;;;6094859;28;80866;-69
2023/01/13 06:20:49;;;;;;;4.63;1.80;;;23.50;45.60;;;;;;6078299;28;81544;-70
2023/01/13 06:23:49;;;;;;;4.60;1.90;;;23.50;45.70;;;;;;6082208;28;81351;-65
2023/01/13 06:26:50;;;;;;;10.32;2.00;;;23.50;45.70;;;;;;6095798;28;81613;-68
2023/01/13 06:29:50;;;;;;;6.95;2.15;;;23.50;46.00;;;;;;6080694;28;81193;-63
2023/01/13 06:32:51;;;;;;;17.90;4.93;;;23.40;46.00;;;;;;6077854;28;82824;-74
2023/01/13 06:35:52;;;;;;;12.82;3.60;;;23.40;46.20;;;;;;6081260;28;80836;-68
2023/01/13 06:38:52;;;;;;;6.13;2.78;;;23.40;46.60;;;;;;6072787;28;84289;-74
2023/01/13 06:45:12;;;;;;;11.40;2.67;;;23.50;47.00;;;;;;6066421;28;80389;-74
2023/01/13 06:48:13;;;;;;;8.18;2.55;;;23.50;47.30;;;;;;6046525;28;83628;-62
2023/01/13 06:51:13;;;;;;;5.93;2.45;;;23.40;47.20;;;;;;6092540;28;81449;-58
2023/01/13 06:54:14;;;;;;;9.43;2.83;;;23.40;47.00;;;;;;6072425;28;83871;-60
2023/01/13 06:57:14;;;;;;;5.03;2.90;;;23.40;47.00;;;;;;6089738;28;82156;-61
2023/01/13 07:00:15;;;;;;;6.20;2.40;;;23.40;46.70;;;;;;6093228;28;80447;-59
2023/01/13 07:03:15;;;;;;;9.75;2.35;;;23.50;46.70;;;;;;6101293;28;82625;-59
2023/01/13 07:06:16;;;;;;;7.00;2.40;;;23.50;46.40;;;;;;6087851;28;85755;-59
2023/01/13 07:09:16;;;;;;;7.28;2.22;;;23.50;46.60;;;;;;6089860;28;80396;-55
2023/01/13 07:12:17;;;;;;;4.28;2.00;;;23.50;46.60;;;;;;6098451;28;81173;-59
2023/01/13 07:15:17;;;;;;;5.13;2.20;;;23.50;46.30;;;;;;6099817;28;80748;-59
2023/01/13 07:18:18;;;;;;;5.90;2.20;;;23.40;46.30;;;;;;6084711;28;80672;-59
2023/01/13 07:21:19;;;;;;;4.22;2.22;;;23.50;45.90;;;;;;6090126;28;80862;-59
2023/01/13 07:24:19;;;;;;;7.13;2.28;;;23.40;45.70;;;;;;6058671;28;80653;-61
2023/01/13 07:27:20;;;;;;;3.50;2.38;;;23.40;45.60;;;;;;5972716;28;82034;-61
2023/01/13 07:30:20;;;;;;;5.10;2.35;;;23.40;45.50;;;;;;5800582;28;83459;-60
2023/01/13 07:33:21;;;;;;;5.60;2.55;;;23.40;45.60;;;;;;6088878;28;81544;-61
2023/01/13 07:36:21;;;;;;;4.55;2.40;;;23.40;45.50;;;;;;6104618;28;87161;-60
2023/01/13 07:39:22;;;;;;;4.40;2.22;;;23.40;45.50;;;;;;6087271;28;80543;-60
2023/01/13 07:45:42;;;;;;;2.50;1.80;;;23.40;44.90;;;;;;6100568;28;83332;-68
2023/01/13 07:48:43;;;;;;;6.10;2.45;;;23.30;44.90;;;;;;6088738;28;81085;-68
2023/01/13 07:51:43;;;;;;;6.22;2.30;;;23.30;45.10;;;;;;6088905;28;80986;-68
2023/01/13 07:54:44;;;;;;;6.68;2.45;;;23.30;45.30;;;;;;6084529;28;81546;-69
2023/01/13 07:57:44;;;;;;;6.25;2.38;;;23.30;45.20;;;;;;6086159;28;81670;-71
2023/01/13 08:00:45;;;;;;;4.32;2.40;;;23.30;45.00;;;;;;6101264;28;80334;-69
2023/01/13 08:03:45;;;;;;;4.82;2.58;;;23.30;45.20;;;;;;6088311;28;81961;-71
2023/01/13 08:06:46;;;;;;;4.95;2.20;;;23.30;45.00;;;;;;6082140;28;80880;-71
2023/01/13 08:09:47;;;;;;;6.45;2.35;;;23.30;45.00;;;;;;6101607;28;83458;-69
2023/01/13 08:16:07;;;;;;;5.78;2.45;;;23.30;45.40;;;;;;6087955;28;80867;-68
2023/01/13 08:19:07;;;;;;;3.97;2.15;;;23.30;45.40;;;;;;6083413;28;80226;-69
2023/01/13 08:22:08;;;;;;;4.32;2.28;;;23.30;45.30;;;;;;6080295;28;80605;-60
2023/01/13 08:25:08;;;;;;;6.45;2.25;;;23.30;45.10;;;;;;6090907;28;81199;-66
2023/01/13 08:28:09;;;;;;;3.90;2.35;;;23.40;45.90;;;;;;6087927;28;81177;-61
2023/01/13 08:31:10;;;;;;;6.68;2.70;;;23.40;45.60;;;;;;6088361;28;81138;-59
2023/01/13 08:34:10;;;;;;;7.38;2.83;;;23.40;45.80;;;;;;6097738;28;80868;-61
2023/01/13 08:37:11;;;;;;;6.20;2.40;;;23.30;45.40;;;;;;6098098;28;81340;-62
2023/01/13 08:40:11;;;;;;;6.07;2.83;;;23.40;45.60;;;;;;6087043;28;81015;-75
2023/01/13 08:43:12;;;;;;;5.28;2.40;;;23.40;45.50;;;;;;6094703;28;80529;-62
2023/01/13 08:46:12;;;;;;;4.10;2.30;;;23.40;46.00;;;;;;6090760;28;80418;-69
2023/01/13 08:49:13;;;;;;;12.27;4.20;;;23.40;47.10;;;;;;6028746;28;84241;-71
2023/01/13 08:52:13;;;;;;;10.20;4.70;;;23.40;47.40;;;;;;6069269;28;83212;-69
2023/01/13 08:55:14;;;;;;;8.63;4.45;;;23.40;47.20;;;;;;6074949;28;80966;-69
2023/01/13 08:58:14;;;;;;;7.13;3.55;;;23.40;46.80;;;;;;6078718;28;81183;-73
2023/01/13 09:01:15;;;;;;;10.05;3.95;;;23.40;46.70;;;;;;6075962;28;81496;-72
2023/01/13 09:04:16;;;;;;;6.78;3.60;;;23.40;46.50;;;;;;6079936;28;82984;-71
2023/01/13 09:07:16;;;;;;;7.60;3.42;;;23.40;46.60;;;;;;6073253;28;80771;-71
2023/01/13 09:10:17;;;;;;;8.43;3.42;;;23.40;46.60;;;;;;6046049;28;84806;-67
2023/01/13 09:13:19;;;;;;;9.55;3.20;;;23.40;46.70;;;;;;6072834;28;80811;-71
2023/01/13 09:16:19;;;;;;;7.20;3.67;;;23.40;46.60;;;;;;6085539;28;81137;-69
2023/01/13 09:19:20;;;;;;;6.28;3.05;;;23.40;46.50;;;;;;6082771;28;84945;-68
2023/01/13 09:22:20;;;;;;;7.60;3.03;;;23.50;46.30;;;;;;6082822;28;80282;-68
2023/01/13 09:25:21;;;;;;;5.50;2.90;;;23.50;46.50;;;;;;6075241;28;80577;-70
2023/01/13 09:28:21;;;;;;;4.97;2.75;;;23.60;46.60;;;;;;6078200;28;80733;-70
2023/01/13 09:31:22;;;;;;;5.50;2.97;;;23.60;46.70;;;;;;6079115;28;80679;-68
2023/01/13 09:37:42;;;;;;;6.00;3.38;;;23.60;46.80;;;;;;6080619;28;81031;-69
2023/01/13 09:40:42;;;;;;;6.65;3.17;;;23.60;46.50;;;;;;6082916;28;82551;-69
2023/01/13 09:43:52;;;;;;;5.30;3.20;;;23.60;46.20;;;;;;6084422;28;80814;-71
2023/01/13 09:46:52;;;;;;;6.85;2.88;;;23.60;46.80;;;;;;6078436;28;84959;-69
2023/01/13 09:49:53;;;;;;;7.75;3.35;;;23.60;46.80;;;;;;6072877;28;84663;-69
2023/01/13 09:52:53;;;;;;;5.05;2.80;;;23.60;46.70;;;;;;6085066;28;82350;-62
2023/01/13 09:55:54;;;;;;;5.55;2.67;;;23.50;46.20;;;;;;6060017;28;81338;-60
2023/01/13 09:58:54;;;;;;;5.43;2.60;;;23.50;46.30;;;;;;6081423;28;83128;-59
2023/01/13 10:01:58;;;;;;;4.30;2.38;;;23.60;46.40;;;;;;6081282;28;80727;-59
2023/01/13 10:04:58;;;;;;;5.85;3.17;;;23.60;46.60;;;;;;6084857;28;84456;-58
2023/01/13 10:07:59;;;;;;;4.60;2.63;;;23.60;46.40;;;;;;6096892;28;82368;-59
2023/01/13 10:10:59;;;;;;;5.82;2.97;;;23.60;46.00;;;;;;6094766;28;84454;-59
2023/01/13 10:14:00;;;;;;;5.75;2.30;;;23.70;45.70;;;;;;6086991;28;81213;-60
2023/01/13 10:17:00;;;;;;;3.72;2.50;;;23.80;46.80;;;;;;6085187;28;80866;-60
2023/01/13 10:20:01;;;;;;;3.83;2.75;;;23.80;45.80;;;;;;6088986;28;80360;-60
2023/01/13 10:23:02;;;;;;;5.57;2.97;;;23.80;45.40;;;;;;6084411;28;82905;-60
2023/01/13 10:26:02;;;;;;;3.60;2.58;;;23.90;45.20;;;;;;6078521;28;82372;-60
2023/01/13 10:29:03;;;;;;;3.53;2.53;;;23.90;45.30;;;;;;6094296;28;83301;-60
2023/01/13 10:32:03;;;;;;;5.15;3.20;;;23.90;44.80;;;;;;6091093;28;81425;-60
2023/01/13 10:35:04;;;;;;;4.35;2.22;;;23.80;44.70;;;;;;6089732;28;80511;-59
2023/01/13 10:38:05;;;;;;;3.75;2.60;;;23.80;45.20;;;;;;6079147;28;84877;-60
2023/01/13 10:41:05;;;;;;;3.72;2.58;;;23.80;45.40;;;;;;6083163;28;81528;-59
2023/01/13 10:44:06;;;;;;;3.17;2.25;;;23.80;45.50;;;;;;6086186;28;80750;-59
2023/01/13 10:47:06;;;;;;;3.90;2.55;;;23.70;45.50;;;;;;6095961;28;80344;-69
2023/01/13 10:50:07;;;;;;;4.65;2.40;;;23.70;45.40;;;;;;6102176;28;80217;-70
2023/01/13 10:53:07;;;;;;;5.18;3.05;;;23.70;45.70;;;;;;6093299;28;80879;-69
2023/01/13 10:56:08;;;;;;;6.72;2.88;;;23.70;45.70;;;;;;6094719;28;81221;-70
2023/01/13 10:59:08;;;;;;;4.07;2.35;;;23.70;45.60;;;;;;6043987;28;82571;-69
2023/01/13 11:02:09;;;;;;;7.20;2.63;;;23.70;45.50;;;;;;6079071;28;82185;-69
2023/01/13 11:05:09;;;;;;;4.07;2.20;;;23.70;45.40;;;;;;6081092;28;82292;-72
2023/01/13 11:08:10;;;;;;;3.05;2.15;;;23.70;46.50;;;;;;6096126;28;80937;-71
2023/01/13 11:11:10;;;;;;;4.18;2.47;;;23.70;45.50;;;;;;6091106;28;80559;-70
2023/01/13 11:17:30;;;;;;;13.32;7.03;;;23.80;46.10;;;;;;6088923;28;83939;-69
2023/01/13 11:20:32;;;;;;;17.02;9.07;;;23.80;46.50;;;;;;6095407;28;80905;-67
2023/01/13 11:23:33;;;;;;;87.72;47.72;;;23.80;46.80;;;;;;6095964;28;81594;-59
2023/01/13 11:26:33;;;;;;;80.07;41.78;;;23.80;49.50;;;;;;6068001;28;87208;-60
2023/01/13 11:29:34;;;;;;;69.20;36.92;;;23.80;49.60;;;;;;6062407;28;84555;-60
2023/01/13 11:32:35;;;;;;;71.88;39.72;;;23.80;49.50;;;;;;6050627;28;88364;-60
2023/01/13 11:35:35;;;;;;;68.88;38.53;;;23.80;50.10;;;;;;6065415;28;84189;-60
2023/01/13 11:38:36;;;;;;;67.25;37.75;;;23.80;51.40;;;;;;6064279;28;83770;-59
2023/01/13 11:41:37;;;;;;;61.47;34.13;;;23.80;51.00;;;;;;6063032;28;88055;-60
2023/01/13 11:44:37;;;;;;;50.45;29.85;;;23.90;51.40;;;;;;6071026;28;84012;-60
2023/01/13 11:47:38;;;;;;;51.03;28.98;;;23.80;50.90;;;;;;6056675;28;83504;-60
2023/01/13 11:50:38;;;;;;;47.65;27.85;;;23.80;50.10;;;;;;6062096;28;84756;-61
2023/01/13 11:53:39;;;;;;;47.33;25.60;;;23.80;50.00;;;;;;6063868;28;85572;-61
2023/01/13 11:56:39;;;;;;;47.40;25.75;;;23.80;49.90;;;;;;6064304;28;83133;-59
2023/01/13 11:59:40;;;;;;;43.60;24.73;;;23.80;49.60;;;;;;6059933;28;83274;-60
2023/01/13 12:02:40;;;;;;;40.78;22.17;;;23.80;49.50;;;;;;6055042;28;86013;-61
2023/01/13 12:05:41;;;;;;;37.30;21.52;;;23.80;49.50;;;;;;6053902;28;83869;-59
2023/01/13 12:08:41;;;;;;;31.52;19.35;;;23.80;49.30;;;;;;6061952;28;83141;-59
2023/01/13 12:15:01;;;;;;;31.10;17.88;;;23.80;48.90;;;;;;6043004;28;88786;-59
2023/01/13 12:18:02;;;;;;;30.40;16.88;;;23.80;48.70;;;;;;6086344;28;84185;-59
2023/01/13 12:21:03;;;;;;;30.67;17.08;;;23.80;48.70;;;;;;6057245;28;83307;-69
2023/01/13 12:24:03;;;;;;;33.05;19.05;;;23.70;49.10;;;;;;6058354;28;85577;-59
2023/01/13 12:27:04;;;;;;;42.60;23.10;;;23.80;48.60;;;;;;6065076;28;83275;-59
2023/01/13 12:30:05;;;;;;;77.90;42.10;;;23.80;48.60;;;;;;6050284;28;87354;-59
2023/01/13 12:33:05;;;;;;;216.48;116.75;;;23.70;48.50;;;;;;6037166;28;96344;-60
2023/01/13 12:36:06;;;;;;;340.83;180.43;;;23.80;48.40;;;;;;6063310;28;85601;-59
2023/01/13 12:39:06;;;;;;;370.00;189.60;;;23.80;48.10;;;;;;6051388;28;87403;-70
2023/01/13 12:45:27;;;;;;;283.77;150.73;;;23.80;48.00;;;;;;6087990;28;86625;-65
2023/01/13 12:48:27;;;;;;;262.70;142.35;;;23.80;48.00;;;;;;6057645;28;87782;-67
2023/01/13 12:51:28;;;;;;;241.85;132.40;;;23.80;47.90;;;;;;6063298;28;85808;-64
2023/01/13 12:54:28;;;;;;;215.07;115.20;;;23.80;48.10;;;;;;6061528;28;87894;-66
2023/01/13 12:57:29;;;;;;;192.60;99.75;;;23.70;48.10;;;;;;6063651;28;86092;-59
2023/01/13 13:00:29;;;;;;;167.23;90.07;;;23.70;48.00;;;;;;6071036;28;85466;-59
2023/01/13 13:03:30;;;;;;;150.20;79.55;;;23.70;47.80;;;;;;6066766;28;83425;-59
2023/01/13 13:06:31;;;;;;;131.80;67.45;;;23.70;47.70;;;;;;6067593;28;84127;-59
2023/01/13 13:09:31;;;;;;;129.00;66.13;;;23.70;47.50;;;;;;6066152;28;85543;-59
2023/01/13 13:15:51;;;;;;;98.20;48.80;;;23.70;47.10;;;;;;6068098;28;83203;-60
2023/01/13 13:18:52;;;;;;;90.68;45.47;;;23.70;46.80;;;;;;6070474;28;83174;-59
2023/01/13 13:21:52;;;;;;;77.50;42.67;;;23.70;46.40;;;;;;6067522;28;84341;-59
2023/01/13 13:24:53;;;;;;;69.60;37.10;;;23.70;46.30;;;;;;6065173;28;82810;-59
2023/01/13 13:27:53;;;;;;;64.43;33.08;;;23.70;46.10;;;;;;6067175;28;83293;-59
2023/01/13 13:30:54;;;;;;;63.03;33.17;;;23.70;46.00;;;;;;6062431;28;83294;-59
2023/01/13 13:33:54;;;;;;;55.47;29.60;;;23.70;45.70;;;;;;6069302;28;84775;-59
2023/01/13 13:36:55;;;;;;;156.45;79.88;;;23.70;45.70;;;;;;6065609;28;83756;-59
2023/01/13 13:46:46;;;;;;;240.70;123.93;;;23.60;45.60;;;;;;6066826;28;85850;-59
2023/01/13 13:49:52;;;;;;;238.57;119.07;;;23.60;45.20;;;;;;6064997;28;85596;-62
2023/01/13 13:52:54;;;;;;;203.57;104.35;;;23.60;45.00;;;;;;6054668;28;86493;-59
2023/01/13 13:55:54;;;;;;;196.18;98.68;;;23.60;44.60;;;;;;6078209;28;86605;-61
2023/01/13 13:58:55;;;;;;;166.43;85.07;;;23.70;44.70;;;;;;6064974;28;85386;-60
2023/01/13 14:02:00;;;;;;;164.70;81.13;;;23.60;44.40;;;;;;6057177;28;87478;-59
2023/01/13 14:05:00;;;;;;;140.98;72.05;;;23.60;44.40;;;;;;6056743;28;83257;-57
2023/01/13 14:08:01;;;;;;;118.55;62.65;;;23.60;44.50;;;;;;6048299;28;83681;-58
2023/01/13 14:11:01;;;;;;;132.27;68.30;;;23.70;44.60;;;;;;6049573;28;84402;-68
2023/01/13 14:14:02;;;;;;;120.20;59.95;;;23.70;44.50;;;;;;6056042;28;82931;-69
2023/01/13 14:17:03;;;;;;;116.63;57.22;;;23.60;44.50;;;;;;6047878;28;84087;-69
2023/01/13 14:20:04;;;;;;;103.35;49.33;;;23.60;44.50;;;;;;6055860;28;83190;-68
2023/01/13 14:23:04;;;;;;;93.80;49.05;;;23.60;44.60;;;;;;6054589;28;83176;-66
2023/01/13 14:26:05;;;;;;;96.10;45.72;;;23.60;44.60;;;;;;6051045;28;84479;-72
2023/01/13 14:29:05;;;;;;;83.60;43.50;;;23.60;44.90;;;;;;6051221;28;83189;-73
2023/01/13 14:32:06;;;;;;;77.93;39.05;;;23.60;45.10;;;;;;6052889;28;84321;-72
2023/01/13 14:35:06;;;;;;;71.00;36.53;;;23.60;45.20;;;;;;6047593;28;83663;-77
2023/01/13 14:38:07;;;;;;;70.20;34.35;;;23.60;45.50;;;;;;6050606;28;82913;-76
2023/01/13 14:41:08;;;;;;;62.25;31.60;;;23.60;46.00;;;;;;6052324;28;87930;-78
2023/01/13 14:44:09;;;;;;;61.42;31.67;;;23.60;46.10;;;;;;6055793;28;83494;-65
2023/01/13 14:47:10;;;;;;;60.65;29.38;;;23.60;46.30;;;;;;6061717;28;83183;-65
2023/01/13 14:50:11;;;;;;;56.53;31.05;;;23.60;46.20;;;;;;6074263;28;82915;-67
2023/01/13 14:53:11;;;;;;;61.83;28.85;;;23.60;46.30;;;;;;6065073;28;88458;-65
2023/01/13 14:56:12;;;;;;;50.13;26.73;;;23.60;46.30;;;;;;6070811;28;83621;-66
2023/01/13 14:59:12;;;;;;;47.95;24.48;;;23.60;46.30;;;;;;6069395;28;87764;-70
2023/01/13 15:02:13;;;;;;;44.78;23.35;;;23.60;46.30;;;;;;6066047;28;84643;-69
2023/01/13 15:05:13;;;;;;;52.75;23.73;;;23.50;46.40;;;;;;6073615;28;85380;-68
2023/01/13 15:08:14;;;;;;;45.38;22.63;;;23.50;46.60;;;;;;6064414;28;84180;-73
2023/01/13 15:11:15;;;;;;;41.22;22.40;;;23.50;46.60;;;;;;6066220;28;88754;-72
2023/01/13 15:14:15;;;;;;;38.85;20.60;;;23.50;46.70;;;;;;6053198;28;83512;-68
2023/01/13 15:17:16;;;;;;;40.15;20.52;;;23.60;46.90;;;;;;6066252;28;85150;-69
2023/01/13 15:20:16;;;;;;;40.95;20.77;;;23.50;47.10;;;;;;6079674;28;84804;-71
2023/01/13 15:23:17;;;;;;;38.45;19.92;;;23.50;47.20;;;;;;6063978;28;83197;-67
2023/01/13 15:26:18;;;;;;;35.75;18.70;;;23.50;47.90;;;;;;6060996;28;84884;-67
2023/01/13 15:29:18;;;;;;;41.72;18.77;;;23.50;48.70;;;;;;6054076;28;84942;-65
2023/01/13 15:32:19;;;;;;;36.30;17.65;;;23.50;48.80;;;;;;6058556;28;84155;-68
2023/01/13 15:35:20;;;;;;;32.10;16.05;;;23.50;48.90;;;;;;6080794;28;86374;-66
2023/01/13 15:38:20;;;;;;;31.67;14.90;;;23.60;48.30;;;;;;6071119;28;85684;-67
2023/01/13 15:46:36;;;;;;;30.58;13.65;;;23.60;48.10;;;;;;6060123;28;83453;-58
2023/01/13 15:48:00;;;;;;;26.98;13.98;;;23.60;47.90;;;;;;6053391;28;84049;-59
2023/01/13 15:51:01;;;;;;;24.25;13.55;;;23.60;48.10;;;;;;6052645;28;84117;-61
2023/01/13 15:54:01;;;;;;;21.40;12.60;;;23.60;48.00;;;;;;6065811;28;83244;-59
2023/01/13 15:57:02;;;;;;;19.23;11.60;;;23.60;47.60;;;;;;6058752;28;83515;-58
2023/01/13 16:00:03;;;;;;;21.88;11.90;;;23.60;47.30;;;;;;6059051;28;84029;-54
2023/01/13 16:03:07;;;;;;;19.55;11.95;;;23.60;47.30;;;;;;6064706;28;83090;-53
2023/01/13 16:06:08;;;;;;;20.65;11.00;;;23.60;48.00;;;;;;6046053;28;83173;-57
2023/01/13 16:09:08;;;;;;;21.92;10.52;;;23.60;47.70;;;;;;6037761;28;83195;-57
2023/01/13 16:12:09;;;;;;;19.45;10.73;;;23.60;47.60;;;;;;6048322;28;88297;-54
2023/01/13 16:15:09;;;;;;;20.17;10.82;;;23.70;47.40;;;;;;6049898;28;83984;-55
2023/01/13 16:18:10;;;;;;;20.13;9.88;;;23.70;47.30;;;;;;6064346;28;82968;-64
2023/01/13 16:21:10;;;;;;;16.55;9.32;;;23.70;47.30;;;;;;6059342;28;82884;-70
2023/01/13 16:24:11;;;;;;;18.73;9.57;;;23.70;47.30;;;;;;6055893;28;82770;-71
2023/01/13 16:27:11;;;;;;;14.73;9.30;;;23.70;47.60;;;;;;6054609;28;82241;-69